Time,TemperatureF,DewpointF,PressureIn,WindDirection,WindDirectionDegrees,WindSpeedMPH,WindSpeedGustMPH,Humidity,HourlyPrecipIn,Conditions,Clouds,dailyrainin,SoftwareType,DateUTC
2013-03-19 00:12:00,47.6,42.0,29.74,ENE,60,0.0,3.0,82,0.00,,,0.00,weatherlink.com 1.10,2013-03-19 04:12:00,
2013-03-19 00:27:00,47.1,43.0,29.74,NNE,13,2.0,4.0,84,0.00,,,0.00,weatherlink.com 1.10,2013-03-19 04:27:00,
2013-03-19 00:42:00,46.7,43.0,29.74,NNE,24,4.0,5.0,85,0.00,,,0.00,weatherlink.com 1.10,2013-03-19 04:42:00,
2013-03-19 00:57:00,46.0,42.0,29.75,NNE,15,0.0,4.0,87,0.00,,,0.00,weatherlink.com 1.10,2013-03-19 04:57:00,
2013-03-19 01:12:00,46.8,42.0,29.74,ENE,65,2.0,3.0,84,0.00,,,0.00,weatherlink.com 1.10,2013-03-19 05:12:00,
2013-03-19 01:42:00,48.1,43.0,29.74,North,4,1.0,7.0,83,0.00,,,0.00,weatherlink.com 1.10,2013-03-19 05:42:00,
2013-03-19 01:57:00,47.8,43.0,29.74,North,360,2.0,6.0,82,0.00,,,0.00,weatherlink.com 1.10,2013-03-19 05:57:00,
2013-03-19 02:12:00,47.9,43.0,29.74,WNW,285,1.0,5.0,82,0.00,,,0.00,weatherlink.com 1.10,2013-03-19 06:12:00,
2013-03-19 02:27:00,47.7,43.0,29.75,NW,307,3.0,9.0,83,0.00,,,0.00,weatherlink.com 1.10,2013-03-19 06:27:00,
2013-03-19 02:42:00,47.9,43.0,29.75,North,359,2.0,6.0,84,0.00,,,0.00,weatherlink.com 1.10,2013-03-19 06:42:00,
2013-03-19 02:57:00,47.5,43.0,29.74,SSE,154,0.0,5.0,85,0.00,,,0.00,weatherlink.com 1.10,2013-03-19 06:57:00,
2013-03-19 03:12:00,47.1,43.0,29.74,NNE,18,1.0,7.0,86,0.00,,,0.00,weatherlink.com 1.10,2013-03-19 07:12:00,
2013-03-19 03:27:00,46.9,43.0,29.74,WSW,255,0.0,5.0,86,0.00,,,0.00,weatherlink.com 1.10,2013-03-19 07:27:00,
2013-03-19 03:42:00,46.9,43.0,29.75,NE,45,1.0,5.0,87,0.00,,,0.00,weatherlink.com 1.10,2013-03-19 07:42:00,
2013-03-19 03:57:00,46.6,43.0,29.75,WNW,290,0.0,4.0,87,0.00,,,0.00,weatherlink.com 1.10,2013-03-19 07:57:00,
2013-03-19 04:12:00,46.4,43.0,29.75,SW,214,0.0,3.0,89,0.00,,,0.00,weatherlink.com 1.10,2013-03-19 08:12:00,
2013-03-19 04:27:00,46.2,44.0,29.75,South,182,1.0,8.0,90,0.00,,,0.00,weatherlink.com 1.10,2013-03-19 08:27:00,
2013-03-19 04:42:00,46.1,43.0,29.75,SSW,205,2.0,5.0,89,0.00,,,0.00,weatherlink.com 1.10,2013-03-19 08:42:00,
2013-03-19 04:59:00,45.8,43.0,29.76,SSW,198,3.0,7.0,89,0.00,,,0.00,weatherlink.com 1.10,2013-03-19 08:59:00,
2013-03-19 05:12:00,44.7,41.0,29.77,SSW,212,2.0,7.0,86,0.00,,,0.00,weatherlink.com 1.10,2013-03-19 09:12:00,
2013-03-19 05:27:00,44.1,39.0,29.77,NE,49,1.0,6.0,83,0.00,,,0.00,weatherlink.com 1.10,2013-03-19 09:27:00,
2013-03-19 05:42:00,43.6,38.0,29.77,SSE,166,2.0,6.0,80,0.00,,,0.00,weatherlink.com 1.10,2013-03-19 09:42:00,
2013-03-19 05:57:00,42.9,37.0,29.78,SSE,153,0.0,10.0,81,0.00,,,0.00,weatherlink.com 1.10,2013-03-19 09:57:00,
2013-03-19 06:12:00,41.6,37.0,29.79,South,191,11.0,12.0,83,0.00,,,0.00,weatherlink.com 1.10,2013-03-19 10:12:00,
2013-03-19 06:27:00,39.7,35.0,29.81,SSW,192,3.0,13.0,83,0.00,,,0.00,weatherlink.com 1.10,2013-03-19 10:27:00,
2013-03-19 06:43:00,37.2,33.0,29.82,South,186,6.0,11.0,84,0.00,,,0.00,weatherlink.com 1.10,2013-03-19 10:43:00,
2013-03-19 06:58:00,36.2,32.0,29.82,SW,221,0.0,10.0,83,0.00,,,0.00,weatherlink.com 1.10,2013-03-19 10:58:00,
2013-03-19 07:13:00,35.7,31.0,29.83,SW,219,1.0,4.0,82,0.00,,,0.00,weatherlink.com 1.10,2013-03-19 11:13:00,
2013-03-19 07:28:00,35.0,28.0,29.84,North,1,0.0,3.0,76,0.00,,,0.00,weatherlink.com 1.10,2013-03-19 11:28:00,
2013-03-19 07:43:00,34.4,27.0,29.85,NE,34,1.0,3.0,73,0.00,,,0.00,weatherlink.com 1.10,2013-03-19 11:43:00,
2013-03-19 07:58:00,33.7,25.0,29.85,SSW,198,0.0,3.0,69,0.00,,,0.00,weatherlink.com 1.10,2013-03-19 11:58:00,
2013-03-19 08:13:00,33.4,24.0,29.85,NNE,23,0.0,3.0,68,0.00,,,0.00,weatherlink.com 1.10,2013-03-19 12:13:00,
2013-03-19 08:28:00,33.3,23.0,29.85,NE,46,1.0,3.0,67,0.00,,,0.00,weatherlink.com 1.10,2013-03-19 12:28:00,
2013-03-19 08:43:00,33.2,24.0,29.85,NE,51,2.0,5.0,68,0.00,,,0.00,weatherlink.com 1.10,2013-03-19 12:43:00,
2013-03-19 08:58:00,33.2,22.0,29.85,NE,34,3.0,4.0,63,0.00,,,0.00,weatherlink.com 1.10,2013-03-19 12:58:00,
2013-03-19 09:13:00,33.6,21.0,29.84,NE,56,2.0,4.0,60,0.00,,,0.00,weatherlink.com 1.10,2013-03-19 13:13:00,
2013-03-19 09:28:00,35.0,21.0,29.84,SSW,213,2.0,5.0,57,0.00,,,0.00,weatherlink.com 1.10,2013-03-19 13:28:00,
2013-03-19 09:43:00,35.7,23.0,29.84,WSW,255,2.0,3.0,61,0.00,,,0.00,weatherlink.com 1.10,2013-03-19 13:43:00,
2013-03-19 09:58:00,35.7,23.0,29.84,SW,226,3.0,5.0,60,0.00,,,0.00,weatherlink.com 1.10,2013-03-19 13:58:00,
2013-03-19 10:13:00,36.3,23.0,29.84,ESE,116,1.0,4.0,58,0.00,,,0.00,weatherlink.com 1.10,2013-03-19 14:13:00,
2013-03-19 10:28:00,36.9,23.0,29.84,SW,231,2.0,3.0,57,0.00,,,0.00,weatherlink.com 1.10,2013-03-19 14:28:00,
2013-03-19 10:43:00,39.2,26.0,29.84,South,173,2.0,3.0,59,0.00,,,0.00,weatherlink.com 1.10,2013-03-19 14:43:00,
2013-03-19 10:58:00,40.3,20.0,29.84,North,1,3.0,5.0,45,0.00,,,0.00,weatherlink.com 1.10,2013-03-19 14:58:00,
2013-03-19 11:13:00,42.0,21.0,29.86,NNE,32,1.0,5.0,44,0.00,,,0.00,weatherlink.com 1.10,2013-03-19 15:13:00,
2013-03-19 11:28:00,43.3,21.0,29.85,SSE,148,1.0,5.0,42,0.00,,,0.00,weatherlink.com 1.10,2013-03-19 15:28:00,
2013-03-19 11:43:00,43.4,17.0,29.86,SSW,196,10.0,10.0,35,0.00,,,0.00,weatherlink.com 1.10,2013-03-19 15:43:00,
2013-03-19 11:59:00,44.0,10.0,29.86,SW,227,4.0,12.0,25,0.00,,,0.00,weatherlink.com 1.10,2013-03-19 15:59:00,
2013-03-19 12:14:00,44.2,8.0,29.88,NW,324,3.0,11.0,23,0.00,,,0.00,weatherlink.com 1.10,2013-03-19 16:14:00,
2013-03-19 12:29:00,45.2,10.0,29.87,SW,235,8.0,9.0,24,0.00,,,0.00,weatherlink.com 1.10,2013-03-19 16:29:00,
2013-03-19 12:44:00,45.2,8.0,29.87,ESE,115,4.0,8.0,22,0.00,,,0.00,weatherlink.com 1.10,2013-03-19 16:44:00,
2013-03-19 12:59:00,46.5,11.0,29.87,SSW,197,6.0,11.0,24,0.00,,,0.00,weatherlink.com 1.10,2013-03-19 16:59:00,
2013-03-19 13:14:00,47.3,12.0,29.87,South,172,1.0,6.0,24,0.00,,,0.00,weatherlink.com 1.10,2013-03-19 17:14:00,
2013-03-19 13:29:00,46.9,13.0,29.86,SSW,195,5.0,10.0,25,0.00,,,0.00,weatherlink.com 1.10,2013-03-19 17:29:00,
2013-03-19 13:44:00,49.1,14.0,29.86,South,184,5.0,8.0,24,0.00,,,0.00,weatherlink.com 1.10,2013-03-19 17:44:00,
2013-03-19 13:59:00,48.5,10.0,29.88,South,188,5.0,14.0,21,0.00,,,0.00,weatherlink.com 1.10,2013-03-19 17:59:00,
2013-03-19 14:14:00,48.4,11.0,29.87,South,189,9.0,12.0,22,0.00,,,0.00,weatherlink.com 1.10,2013-03-19 18:14:00,
2013-03-19 14:29:00,48.9,13.0,29.86,NW,321,1.0,16.0,24,0.00,,,0.00,weatherlink.com 1.10,2013-03-19 18:29:00,
2013-03-19 14:44:00,49.2,19.0,29.86,SSW,193,6.0,10.0,30,0.00,,,0.00,weatherlink.com 1.10,2013-03-19 18:44:00,
2013-03-19 14:59:00,48.1,15.0,29.86,WSW,243,3.0,16.0,27,0.00,,,0.00,weatherlink.com 1.10,2013-03-19 18:59:00,
2013-03-19 15:14:00,48.0,16.0,29.87,North,6,3.0,19.0,28,0.00,,,0.00,weatherlink.com 1.10,2013-03-19 19:14:00,
2013-03-19 15:29:00,47.8,18.0,29.87,SSE,167,4.0,16.0,30,0.00,,,0.00,weatherlink.com 1.10,2013-03-19 19:29:00,
2013-03-19 15:44:00,47.7,17.0,29.86,SSW,210,5.0,18.0,29,0.00,,,0.00,weatherlink.com 1.10,2013-03-19 19:44:00,
2013-03-19 15:59:00,46.8,18.0,29.87,South,176,5.0,16.0,32,0.00,,,0.00,weatherlink.com 1.10,2013-03-19 19:59:00,
2013-03-19 16:14:00,47.9,18.0,29.87,SSW,206,6.0,12.0,31,0.00,,,0.00,weatherlink.com 1.10,2013-03-19 20:14:00,
2013-03-19 16:29:00,46.8,15.0,29.88,SW,227,2.0,17.0,28,0.00,,,0.00,weatherlink.com 1.10,2013-03-19 20:29:00,
2013-03-19 16:44:00,46.8,14.0,29.88,South,188,7.0,13.0,27,0.00,,,0.00,weatherlink.com 1.10,2013-03-19 20:44:00,
2013-03-19 16:59:00,46.5,16.0,29.89,WSW,241,5.0,14.0,29,0.00,,,0.00,weatherlink.com 1.10,2013-03-19 20:59:00,
2013-03-19 17:14:00,45.7,14.0,29.89,SSW,198,11.0,19.0,28,0.00,,,0.00,weatherlink.com 1.10,2013-03-19 21:14:00,
2013-03-19 17:29:00,45.5,16.0,29.89,SSW,192,8.0,18.0,31,0.00,,,0.00,weatherlink.com 1.10,2013-03-19 21:29:00,
2013-03-19 17:44:00,45.5,18.0,29.89,SSW,197,1.0,13.0,33,0.00,,,0.00,weatherlink.com 1.10,2013-03-19 21:44:00,
2013-03-19 17:59:00,45.1,19.0,29.89,South,172,5.0,14.0,35,0.00,,,0.00,weatherlink.com 1.10,2013-03-19 21:59:00,
2013-03-19 18:29:00,44.2,17.0,29.90,SW,226,7.0,12.0,34,0.00,,,0.00,weatherlink.com 1.10,2013-03-19 22:29:00,
2013-03-19 18:44:00,43.6,17.0,29.89,SSE,156,3.0,11.0,35,0.00,,,0.00,weatherlink.com 1.10,2013-03-19 22:44:00,
2013-03-19 18:59:00,43.1,18.0,29.90,South,188,3.0,10.0,36,0.00,,,0.00,weatherlink.com 1.10,2013-03-19 22:59:00,
2013-03-19 19:14:00,42.6,17.0,29.90,SE,143,4.0,13.0,36,0.00,,,0.00,weatherlink.com 1.10,2013-03-19 23:14:00,
2013-03-19 19:29:00,42.1,16.0,29.91,WSW,243,2.0,9.0,35,0.00,,,0.00,weatherlink.com 1.10,2013-03-19 23:29:00,
2013-03-19 19:44:00,41.3,16.0,29.91,NE,55,2.0,6.0,36,0.00,,,0.00,weatherlink.com 1.10,2013-03-19 23:44:00,
2013-03-19 19:59:00,40.6,14.0,29.92,South,188,3.0,4.0,34,0.00,,,0.00,weatherlink.com 1.10,2013-03-19 23:59:00,
2013-03-19 20:14:00,40.0,14.0,29.92,SSE,168,0.0,4.0,34,0.00,,,0.00,weatherlink.com 1.10,2013-03-20 00:14:00,
2013-03-19 20:29:00,39.2,15.0,29.92,ESE,107,1.0,4.0,37,0.00,,,0.00,weatherlink.com 1.10,2013-03-20 00:29:00,
2013-03-19 20:44:00,38.8,12.0,29.92,NE,34,0.0,9.0,34,0.00,,,0.00,weatherlink.com 1.10,2013-03-20 00:44:00,
2013-03-19 20:59:00,38.3,15.0,29.93,NNW,348,0.0,2.0,39,0.00,,,0.00,weatherlink.com 1.10,2013-03-20 00:59:00,
2013-03-19 21:14:00,37.6,13.0,29.92,North,8,0.0,3.0,37,0.00,,,0.00,weatherlink.com 1.10,2013-03-20 01:14:00,
2013-03-19 21:29:00,37.1,15.0,29.93,NNE,27,0.0,4.0,41,0.00,,,0.00,weatherlink.com 1.10,2013-03-20 01:29:00,
2013-03-19 21:44:00,36.5,14.0,29.93,NNE,29,3.0,4.0,39,0.00,,,0.00,weatherlink.com 1.10,2013-03-20 01:44:00,
2013-03-19 21:59:00,36.2,13.0,29.93,North,354,0.0,3.0,38,0.00,,,0.00,weatherlink.com 1.10,2013-03-20 01:59:00,
2013-03-19 22:14:00,35.9,12.0,29.93,SSE,147,0.0,3.0,38,0.00,,,0.00,weatherlink.com 1.10,2013-03-20 02:14:00,
2013-03-19 22:29:00,35.3,15.0,29.92,NE,41,3.0,4.0,44,0.00,,,0.00,weatherlink.com 1.10,2013-03-20 02:29:00,
2013-03-19 22:44:00,35.2,16.0,29.92,NE,56,1.0,4.0,45,0.00,,,0.00,weatherlink.com 1.10,2013-03-20 02:44:00,
2013-03-19 22:59:00,34.8,14.0,29.93,North,359,1.0,3.0,42,0.00,,,0.00,weatherlink.com 1.10,2013-03-20 02:59:00,
2013-03-19 23:14:00,34.6,14.0,29.93,SE,146,0.0,3.0,43,0.00,,,0.00,weatherlink.com 1.10,2013-03-20 03:14:00,
2013-03-19 23:29:00,33.8,14.0,29.93,East,96,0.0,4.0,45,0.00,,,0.00,weatherlink.com 1.10,2013-03-20 03:29:00,
2013-03-19 23:44:00,33.5,14.0,29.93,NNE,25,3.0,4.0,45,0.00,,,0.00,weatherlink.com 1.10,2013-03-20 03:44:00,
2013-03-19 23:59:00,33.3,14.0,29.93,NNE,25,1.0,3.0,45,0.00,,,0.00,weatherlink.com 1.10,2013-03-20 03:59:00,